sensor_id;sensor_type;location;lat;lon;timestamp;pressure;altitude;pressure_sealevel;temperature;humidity
23229;BME280;11783;50.350;6.576;2023-08-24T00:02:00;96566.31;;;17.75;93.50
23229;BME280;11783;50.350;6.576;2023-08-24T00:04:25;96566.84;;;17.77;93.33
23229;BME280;11783;50.350;6.576;2023-08-24T00:06:50;96544.53;;;17.77;94.51
23229;BME280;11783;50.350;6.576;2023-08-24T00:09:16;96545.38;;;17.72;94.71
23229;BME280;11783;50.350;6.576;2023-08-24T00:11:42;96546.78;;;17.60;94.92
23229;BME280;11783;50.350;6.576;2023-08-24T00:14:07;96544.19;;;17.49;95.36
23229;BME280;11783;50.350;6.576;2023-08-24T00:16:32;96546.91;;;17.39;95.64
23229;BME280;11783;50.350;6.576;2023-08-24T00:18:58;96542.16;;;17.31;96.05
23229;BME280;11783;50.350;6.576;2023-08-24T00:21:23;96548.31;;;17.32;95.85
23229;BME280;11783;50.350;6.576;2023-08-24T00:23:50;96548.59;;;17.25;95.96
23229;BME280;11783;50.350;6.576;2023-08-24T00:26:15;96548.59;;;17.25;96.50
23229;BME280;11783;50.350;6.576;2023-08-24T00:28:44;96562.03;;;17.25;96.73
23229;BME280;11783;50.350;6.576;2023-08-24T00:31:09;96562.31;;;17.23;97.59
23229;BME280;11783;50.350;6.576;2023-08-24T00:33:34;96565.28;;;17.22;97.15
23229;BME280;11783;50.350;6.576;2023-08-24T00:36:00;96558.31;;;17.21;96.86
23229;BME280;11783;50.350;6.576;2023-08-24T00:38:26;96564.50;;;17.16;97.71
23229;BME280;11783;50.350;6.576;2023-08-24T00:40:51;96555.09;;;17.19;98.87
23229;BME280;11783;50.350;6.576;2023-08-24T00:43:19;96556.50;;;17.06;100.00
23229;BME280;11783;50.350;6.576;2023-08-24T00:45:50;96558.09;;;17.07;100.00
23229;BME280;11783;50.350;6.576;2023-08-24T00:48:16;96569.13;;;17.11;100.00
23229;BME280;11783;50.350;6.576;2023-08-24T00:50:42;96563.19;;;17.14;99.49
23229;BME280;11783;50.350;6.576;2023-08-24T00:53:07;96565.06;;;17.08;100.00
23229;BME280;11783;50.350;6.576;2023-08-24T00:55:33;96552.44;;;17.09;100.00
23229;BME280;11783;50.350;6.576;2023-08-24T00:57:59;96550.84;;;17.08;98.97
23229;BME280;11783;50.350;6.576;2023-08-24T01:00:24;96551.91;;;17.12;98.59
23229;BME280;11783;50.350;6.576;2023-08-24T01:02:50;96551.66;;;17.13;97.38
23229;BME280;11783;50.350;6.576;2023-08-24T01:05:15;96543.88;;;17.12;97.44
23229;BME280;11783;50.350;6.576;2023-08-24T01:07:41;96543.88;;;17.12;96.94
23229;BME280;11783;50.350;6.576;2023-08-24T01:10:07;96543.06;;;17.11;96.69
23229;BME280;11783;50.350;6.576;2023-08-24T01:15:07;96537.13;;;17.14;98.92
23229;BME280;11783;50.350;6.576;2023-08-24T01:17:35;96540.09;;;17.13;99.81
23229;BME280;11783;50.350;6.576;2023-08-24T01:20:02;96530.44;;;17.07;99.92
23229;BME280;11783;50.350;6.576;2023-08-24T01:22:36;96533.44;;;17.00;97.88
23229;BME280;11783;50.350;6.576;2023-08-24T01:27:33;96514.16;;;16.93;97.04
23229;BME280;11783;50.350;6.576;2023-08-24T01:30:01;96501.81;;;16.92;96.75
23229;BME280;11783;50.350;6.576;2023-08-24T01:32:26;96496.44;;;16.92;97.40
23229;BME280;11783;50.350;6.576;2023-08-24T01:34:52;96492.69;;;16.93;96.64
23229;BME280;11783;50.350;6.576;2023-08-24T01:37:17;96486.50;;;16.92;97.02
23229;BME280;11783;50.350;6.576;2023-08-24T01:39:54;96492.13;;;16.91;96.56
23229;BME280;11783;50.350;6.576;2023-08-24T01:42:21;96491.31;;;16.90;97.12
23229;BME280;11783;50.350;6.576;2023-08-24T01:44:54;96489.19;;;16.87;97.71
23229;BME280;11783;50.350;6.576;2023-08-24T01:47:21;96481.19;;;16.82;96.66
23229;BME280;11783;50.350;6.576;2023-08-24T01:49:48;96474.25;;;16.71;97.00
23229;BME280;11783;50.350;6.576;2023-08-24T01:52:14;96467.00;;;16.72;96.51
23229;BME280;11783;50.350;6.576;2023-08-24T01:54:40;96469.94;;;16.70;96.38
23229;BME280;11783;50.350;6.576;2023-08-24T01:57:05;96465.66;;;16.69;97.08
23229;BME280;11783;50.350;6.576;2023-08-24T01:59:31;96465.94;;;16.68;97.78
23229;BME280;11783;50.350;6.576;2023-08-24T02:01:57;96465.38;;;16.65;96.82
23229;BME280;11783;50.350;6.576;2023-08-24T02:04:22;96444.75;;;16.61;97.02
23229;BME280;11783;50.350;6.576;2023-08-24T02:06:48;96449.59;;;16.59;97.17
23229;BME280;11783;50.350;6.576;2023-08-24T02:09:13;96439.41;;;16.56;97.87
23229;BME280;11783;50.350;6.576;2023-08-24T02:11:38;96440.50;;;16.55;96.99
23229;BME280;11783;50.350;6.576;2023-08-24T02:14:04;96425.19;;;16.55;97.18
23229;BME280;11783;50.350;6.576;2023-08-24T02:16:29;96427.88;;;16.55;96.83
23229;BME280;11783;50.350;6.576;2023-08-24T02:18:55;96420.63;;;16.56;98.36
23229;BME280;11783;50.350;6.576;2023-08-24T02:21:20;96416.06;;;16.51;99.51
23229;BME280;11783;50.350;6.576;2023-08-24T02:23:46;96406.44;;;16.50;98.66
23229;BME280;11783;50.350;6.576;2023-08-24T02:26:12;96415.78;;;16.53;98.94
23229;BME280;11783;50.350;6.576;2023-08-24T02:28:37;96408.31;;;16.50;100.00
23229;BME280;11783;50.350;6.576;2023-08-24T02:31:03;96409.38;;;16.49;100.00
23229;BME280;11783;50.350;6.576;2023-08-24T02:33:30;96405.66;;;16.45;100.00
23229;BME280;11783;50.350;6.576;2023-08-24T02:35:56;96395.75;;;16.35;100.00
23229;BME280;11783;50.350;6.576;2023-08-24T02:38:22;96399.03;;;16.27;100.00
23229;BME280;11783;50.350;6.576;2023-08-24T02:40:48;96394.50;;;16.22;100.00
23229;BME280;11783;50.350;6.576;2023-08-24T02:43:13;96392.63;;;16.23;100.00
23229;BME280;11783;50.350;6.576;2023-08-24T02:45:38;96386.44;;;16.17;100.00
23229;BME280;11783;50.350;6.576;2023-08-24T02:48:04;96389.69;;;16.14;100.00
23229;BME280;11783;50.350;6.576;2023-08-24T02:50:30;96395.59;;;16.11;100.00
23229;BME280;11783;50.350;6.576;2023-08-24T02:52:55;96393.78;;;16.01;100.00
23229;BME280;11783;50.350;6.576;2023-08-24T02:55:23;96390.31;;;15.91;100.00
23229;BME280;11783;50.350;6.576;2023-08-24T02:57:49;96400.00;;;15.82;100.00
23229;BME280;11783;50.350;6.576;2023-08-24T03:00:14;96401.84;;;15.76;100.00
23229;BME280;11783;50.350;6.576;2023-08-24T03:02:40;96406.72;;;15.69;100.00
23229;BME280;11783;50.350;6.576;2023-08-24T03:05:05;96408.59;;;15.63;100.00
23229;BME280;11783;50.350;6.576;2023-08-24T03:07:31;96394.66;;;15.61;100.00
23229;BME280;11783;50.350;6.576;2023-08-24T03:09:57;96399.19;;;15.61;100.00
23229;BME280;11783;50.350;6.576;2023-08-24T03:12:22;96415.03;;;15.62;100.00
23229;BME280;11783;50.350;6.576;2023-08-24T03:14:51;96422.50;;;15.60;100.00
23229;BME280;11783;50.350;6.576;2023-08-24T03:17:16;96440.69;;;15.58;100.00
23229;BME280;11783;50.350;6.576;2023-08-24T03:19:42;96457.84;;;15.57;100.00
23229;BME280;11783;50.350;6.576;2023-08-24T03:22:07;96482.00;;;15.62;100.00
23229;BME280;11783;50.350;6.576;2023-08-24T03:24:33;96488.16;;;15.63;100.00
23229;BME280;11783;50.350;6.576;2023-08-24T03:26:58;96499.66;;;15.73;100.00
23229;BME280;11783;50.350;6.576;2023-08-24T03:29:23;96525.13;;;15.76;100.00
23229;BME280;11783;50.350;6.576;2023-08-24T03:31:49;96547.38;;;15.82;100.00
23229;BME280;11783;50.350;6.576;2023-08-24T03:34:14;96559.41;;;15.79;100.00
23229;BME280;11783;50.350;6.576;2023-08-24T03:36:39;96554.63;;;15.86;100.00
23229;BME280;11783;50.350;6.576;2023-08-24T03:39:05;96542.56;;;15.89;100.00
23229;BME280;11783;50.350;6.576;2023-08-24T03:41:30;96541.47;;;15.90;100.00
23229;BME280;11783;50.350;6.576;2023-08-24T03:43:55;96553.81;;;15.86;100.00
23229;BME280;11783;50.350;6.576;2023-08-24T03:46:21;96550.06;;;15.82;100.00
23229;BME280;11783;50.350;6.576;2023-08-24T03:48:46;96554.34;;;15.83;100.00
23229;BME280;11783;50.350;6.576;2023-08-24T03:51:11;96534.22;;;15.95;100.00
23229;BME280;11783;50.350;6.576;2023-08-24T03:53:37;96544.69;;;15.92;100.00
23229;BME280;11783;50.350;6.576;2023-08-24T03:56:03;96551.94;;;15.91;100.00
23229;BME280;11783;50.350;6.576;2023-08-24T03:58:29;96558.34;;;15.95;100.00
23229;BME280;11783;50.350;6.576;2023-08-24T04:00:54;96549.25;;;16.01;100.00
23229;BME280;11783;50.350;6.576;2023-08-24T04:03:20;96544.97;;;16.05;100.00
23229;BME280;11783;50.350;6.576;2023-08-24T04:05:46;96544.66;;;16.12;100.00
23229;BME280;11783;50.350;6.576;2023-08-24T04:08:11;96544.66;;;16.22;100.00
23229;BME280;11783;50.350;6.576;2023-08-24T04:10:37;96546.28;;;16.23;100.00
23229;BME280;11783;50.350;6.576;2023-08-24T04:13:03;96537.69;;;16.26;100.00
23229;BME280;11783;50.350;6.576;2023-08-24T04:15:28;96529.06;;;16.34;100.00
23229;BME280;11783;50.350;6.576;2023-08-24T04:17:53;96524.50;;;16.35;100.00
23229;BME280;11783;50.350;6.576;2023-08-24T04:20:19;96526.13;;;16.36;100.00
23229;BME280;11783;50.350;6.576;2023-08-24T04:22:44;96541.16;;;16.32;100.00
23229;BME280;11783;50.350;6.576;2023-08-24T04:25:09;96557.53;;;16.25;100.00
23229;BME280;11783;50.350;6.576;2023-08-24T04:27:36;96560.44;;;16.34;100.00
23229;BME280;11783;50.350;6.576;2023-08-24T04:30:01;96545.16;;;16.40;100.00
23229;BME280;11783;50.350;6.576;2023-08-24T04:32:28;96547.03;;;16.44;100.00
23229;BME280;11783;50.350;6.576;2023-08-24T04:34:53;96541.91;;;16.48;100.00
23229;BME280;11783;50.350;6.576;2023-08-24T04:37:19;96520.16;;;16.54;100.00
23229;BME280;11783;50.350;6.576;2023-08-24T04:39:44;96510.25;;;16.50;100.00
23229;BME280;11783;50.350;6.576;2023-08-24T04:42:10;96532.28;;;16.42;100.00
23229;BME280;11783;50.350;6.576;2023-08-24T04:44:35;96525.59;;;16.39;100.00
23229;BME280;11783;50.350;6.576;2023-08-24T04:47:00;96511.88;;;16.46;100.00
23229;BME280;11783;50.350;6.576;2023-08-24T04:49:26;96505.75;;;16.40;100.00
23229;BME280;11783;50.350;6.576;2023-08-24T04:51:51;96488.03;;;16.39;100.00
23229;BME280;11783;50.350;6.576;2023-08-24T04:54:17;96484.56;;;16.33;100.00
23229;BME280;11783;50.350;6.576;2023-08-24T04:56:42;96460.44;;;16.28;100.00
23229;BME280;11783;50.350;6.576;2023-08-24T04:59:08;96446.50;;;16.26;100.00
23229;BME280;11783;50.350;6.576;2023-08-24T05:01:34;96437.94;;;16.24;100.00
23229;BME280;11783;50.350;6.576;2023-08-24T05:03:59;96442.47;;;16.29;100.00
23229;BME280;11783;50.350;6.576;2023-08-24T05:06:25;96450.81;;;16.22;100.00
23229;BME280;11783;50.350;6.576;2023-08-24T05:08:50;96432.84;;;16.23;100.00
23229;BME280;11783;50.350;6.576;2023-08-24T05:11:21;96423.75;;;16.14;100.00
23229;BME280;11783;50.350;6.576;2023-08-24T05:13:47;96429.63;;;16.16;100.00
23229;BME280;11783;50.350;6.576;2023-08-24T05:16:13;96442.22;;;16.25;100.00
23229;BME280;11783;50.350;6.576;2023-08-24T05:18:38;96418.38;;;16.14;100.00
23229;BME280;11783;50.350;6.576;2023-08-24T05:21:04;96413.63;;;16.00;100.00
23229;BME280;11783;50.350;6.576;2023-08-24T05:23:31;96404.78;;;16.00;100.00
23229;BME280;11783;50.350;6.576;2023-08-24T05:25:57;96392.94;;;16.06;100.00
23229;BME280;11783;50.350;6.576;2023-08-24T05:28:24;96361.81;;;16.10;100.00
23229;BME280;11783;50.350;6.576;2023-08-24T05:30:51;96351.69;;;15.97;100.00
23229;BME280;11783;50.350;6.576;2023-08-24T05:33:16;96355.41;;;16.06;100.00
23229;BME280;11783;50.350;6.576;2023-08-24T05:35:42;96365.28;;;16.16;100.00
23229;BME280;11783;50.350;6.576;2023-08-24T05:38:07;96356.44;;;16.20;100.00
23229;BME280;11783;50.350;6.576;2023-08-24T05:40:33;96350.53;;;16.13;100.00
23229;BME280;11783;50.350;6.576;2023-08-24T05:42:59;96355.09;;;16.13;100.00
23229;BME280;11783;50.350;6.576;2023-08-24T05:45:24;96361.78;;;16.20;100.00
23229;BME280;11783;50.350;6.576;2023-08-24T05:47:50;96375.44;;;16.24;100.00
23229;BME280;11783;50.350;6.576;2023-08-24T05:50:15;96377.56;;;16.27;100.00
23229;BME280;11783;50.350;6.576;2023-08-24T05:52:40;96359.28;;;16.39;100.00
23229;BME280;11783;50.350;6.576;2023-08-24T05:55:06;96350.41;;;16.44;100.00
23229;BME280;11783;50.350;6.576;2023-08-24T05:57:31;96348.56;;;16.39;100.00
23229;BME280;11783;50.350;6.576;2023-08-24T05:59:57;96349.63;;;16.38;100.00
23229;BME280;11783;50.350;6.576;2023-08-24T06:02:22;96345.03;;;16.44;100.00
23229;BME280;11783;50.350;6.576;2023-08-24T06:04:47;96329.44;;;16.51;100.00
23229;BME280;11783;50.350;6.576;2023-08-24T06:07:16;96319.75;;;16.55;100.00
23229;BME280;11783;50.350;6.576;2023-08-24T06:09:41;96316.56;;;16.48;100.00
23229;BME280;11783;50.350;6.576;2023-08-24T06:12:07;96310.72;;;16.41;100.00
23229;BME280;11783;50.350;6.576;2023-08-24T06:14:32;96317.38;;;16.48;100.00
23229;BME280;11783;50.350;6.576;2023-08-24T06:16:58;96305.28;;;16.56;100.00
23229;BME280;11783;50.350;6.576;2023-08-24T06:19:23;96303.09;;;16.58;100.00
23229;BME280;11783;50.350;6.576;2023-08-24T06:21:48;96304.44;;;16.60;100.00
23229;BME280;11783;50.350;6.576;2023-08-24T06:24:14;96315.69;;;16.62;100.00
23229;BME280;11783;50.350;6.576;2023-08-24T06:26:40;96320.75;;;16.69;100.00
23229;BME280;11783;50.350;6.576;2023-08-24T06:29:05;96315.38;;;16.74;100.00
23229;BME280;11783;50.350;6.576;2023-08-24T06:31:30;96314.56;;;16.74;100.00
23229;BME280;11783;50.350;6.576;2023-08-24T06:33:56;96319.66;;;16.70;100.00
23229;BME280;11783;50.350;6.576;2023-08-24T06:36:21;96314.59;;;16.69;100.00
23229;BME280;11783;50.350;6.576;2023-08-24T06:38:47;96315.38;;;16.74;100.00
23229;BME280;11783;50.350;6.576;2023-08-24T06:41:12;96303.84;;;16.74;100.00
23229;BME280;11783;50.350;6.576;2023-08-24T06:43:38;96301.63;;;16.81;100.00
23229;BME280;11783;50.350;6.576;2023-08-24T06:46:05;96294.09;;;16.83;100.00
23229;BME280;11783;50.350;6.576;2023-08-24T06:48:33;96298.31;;;16.89;100.00
23229;BME280;11783;50.350;6.576;2023-08-24T06:50:59;96285.97;;;16.93;100.00
23229;BME280;11783;50.350;6.576;2023-08-24T06:53:24;96280.59;;;16.93;100.00
23229;BME280;11783;50.350;6.576;2023-08-24T06:55:57;96280.03;;;16.96;100.00
23229;BME280;11783;50.350;6.576;2023-08-24T06:58:22;96287.50;;;16.99;100.00
23229;BME280;11783;50.350;6.576;2023-08-24T07:00:48;96286.13;;;17.02;100.00
23229;BME280;11783;50.350;6.576;2023-08-24T07:03:18;96295.50;;;17.04;100.00
23229;BME280;11783;50.350;6.576;2023-08-24T07:05:45;96283.41;;;17.07;100.00
23229;BME280;11783;50.350;6.576;2023-08-24T07:08:10;96284.72;;;17.09;100.00
23229;BME280;11783;50.350;6.576;2023-08-24T07:10:36;96280.91;;;17.15;100.00
23229;BME280;11783;50.350;6.576;2023-08-24T07:13:01;96277.91;;;17.22;100.00
23229;BME280;11783;50.350;6.576;2023-08-24T07:15:27;96275.63;;;17.34;100.00
23229;BME280;11783;50.350;6.576;2023-08-24T07:17:52;96269.69;;;17.37;100.00
23229;BME280;11783;50.350;6.576;2023-08-24T07:20:18;96271.22;;;17.43;100.00
23229;BME280;11783;50.350;6.576;2023-08-24T07:22:43;96269.00;;;17.50;100.00
23229;BME280;11783;50.350;6.576;2023-08-24T07:25:08;96257.09;;;17.56;100.00
23229;BME280;11783;50.350;6.576;2023-08-24T07:27:35;96242.75;;;17.66;100.00
23229;BME280;11783;50.350;6.576;2023-08-24T07:30:01;96247.31;;;17.71;100.00
23229;BME280;11783;50.350;6.576;2023-08-24T07:32:31;96245.56;;;17.80;100.00
23229;BME280;11783;50.350;6.576;2023-08-24T07:34:56;96249.81;;;17.86;100.00
23229;BME280;11783;50.350;6.576;2023-08-24T07:37:23;96242.25;;;17.88;100.00
23229;BME280;11783;50.350;6.576;2023-08-24T07:39:49;96235.94;;;17.98;100.00
23229;BME280;11783;50.350;6.576;2023-08-24T07:42:14;96229.63;;;18.07;100.00
23229;BME280;11783;50.350;6.576;2023-08-24T07:44:39;96223.06;;;18.13;100.00
23229;BME280;11783;50.350;6.576;2023-08-24T07:47:05;96221.84;;;18.25;100.00
23229;BME280;11783;50.350;6.576;2023-08-24T07:49:30;96222.38;;;18.40;100.00
23229;BME280;11783;50.350;6.576;2023-08-24T07:51:56;96231.03;;;18.56;100.00
23229;BME280;11783;50.350;6.576;2023-08-24T07:54:23;96222.94;;;18.75;100.00
23229;BME280;11783;50.350;6.576;2023-08-24T07:56:49;96226.78;;;18.88;100.00
23229;BME280;11783;50.350;6.576;2023-08-24T07:59:14;96235.19;;;19.14;100.00
23229;BME280;11783;50.350;6.576;2023-08-24T08:01:39;96233.94;;;19.39;100.00
23229;BME280;11783;50.350;6.576;2023-08-24T08:04:05;96239.38;;;19.66;100.00
23229;BME280;11783;50.350;6.576;2023-08-24T08:06:31;96237.75;;;19.92;100.00
23229;BME280;11783;50.350;6.576;2023-08-24T08:08:56;96238.13;;;20.13;100.00
23229;BME280;11783;50.350;6.576;2023-08-24T08:11:23;96236.69;;;20.30;100.00
23229;BME280;11783;50.350;6.576;2023-08-24T08:13:48;96234.25;;;20.42;100.00
23229;BME280;11783;50.350;6.576;2023-08-24T08:16:13;96242.66;;;20.63;100.00
23229;BME280;11783;50.350;6.576;2023-08-24T08:18:39;96241.50;;;20.77;100.00
23229;BME280;11783;50.350;6.576;2023-08-24T08:21:15;96241.13;;;20.93;100.00
23229;BME280;11783;50.350;6.576;2023-08-24T08:23:43;96236.88;;;21.00;100.00
23229;BME280;11783;50.350;6.576;2023-08-24T08:26:10;96240.00;;;21.16;100.00
23229;BME280;11783;50.350;6.576;2023-08-24T08:28:35;96240.91;;;21.34;100.00
23229;BME280;11783;50.350;6.576;2023-08-24T08:31:01;96245.75;;;21.45;100.00
23229;BME280;11783;50.350;6.576;2023-08-24T08:33:27;96246.59;;;21.63;100.00
23229;BME280;11783;50.350;6.576;2023-08-24T08:35:52;96239.19;;;21.77;100.00
23229;BME280;11783;50.350;6.576;2023-08-24T08:38:18;96242.84;;;21.90;100.00
23229;BME280;11783;50.350;6.576;2023-08-24T08:40:45;96243.84;;;22.03;100.00
23229;BME280;11783;50.350;6.576;2023-08-24T08:43:11;96233.53;;;22.31;100.00
23229;BME280;11783;50.350;6.576;2023-08-24T08:45:37;96220.31;;;22.47;100.00
23229;BME280;11783;50.350;6.576;2023-08-24T08:48:02;96223.19;;;22.59;98.75
23229;BME280;11783;50.350;6.576;2023-08-24T08:50:28;96207.59;;;22.73;97.03
23229;BME280;11783;50.350;6.576;2023-08-24T08:52:55;96209.63;;;22.93;96.15
23229;BME280;11783;50.350;6.576;2023-08-24T08:55:21;96204.19;;;23.11;90.80
23229;BME280;11783;50.350;6.576;2023-08-24T08:57:48;96203.34;;;23.19;89.07
23229;BME280;11783;50.350;6.576;2023-08-24T09:00:18;96193.09;;;23.33;92.38
23229;BME280;11783;50.350;6.576;2023-08-24T09:02:45;96186.22;;;23.36;84.48
23229;BME280;11783;50.350;6.576;2023-08-24T09:05:11;96176.72;;;23.59;88.77
23229;BME280;11783;50.350;6.576;2023-08-24T09:07:39;96174.53;;;23.82;86.58
23229;BME280;11783;50.350;6.576;2023-08-24T09:10:05;96178.19;;;24.07;83.00
23229;BME280;11783;50.350;6.576;2023-08-24T09:12:32;96162.56;;;24.25;81.33
23229;BME280;11783;50.350;6.576;2023-08-24T09:14:58;96160.78;;;24.29;77.45
23229;BME280;11783;50.350;6.576;2023-08-24T09:17:23;96147.34;;;24.32;79.96
23229;BME280;11783;50.350;6.576;2023-08-24T09:19:50;96154.28;;;24.42;82.22
23229;BME280;11783;50.350;6.576;2023-08-24T09:22:17;96154.19;;;24.51;80.12
23229;BME280;11783;50.350;6.576;2023-08-24T09:24:42;96160.81;;;24.62;80.84
23229;BME280;11783;50.350;6.576;2023-08-24T09:27:18;96157.88;;;24.67;79.63
23229;BME280;11783;50.350;6.576;2023-08-24T09:29:48;96159.41;;;24.76;76.95
23229;BME280;11783;50.350;6.576;2023-08-24T09:32:14;96164.06;;;24.88;76.49
23229;BME280;11783;50.350;6.576;2023-08-24T09:34:39;96164.31;;;24.95;77.55
23229;BME280;11783;50.350;6.576;2023-08-24T09:37:12;96165.03;;;25.04;76.22
23229;BME280;11783;50.350;6.576;2023-08-24T09:39:38;96163.47;;;25.16;75.06
23229;BME280;11783;50.350;6.576;2023-08-24T09:42:04;96171.50;;;25.24;77.10
23229;BME280;11783;50.350;6.576;2023-08-24T09:44:29;96180.00;;;25.23;73.24
23229;BME280;11783;50.350;6.576;2023-08-24T09:46:55;96179.34;;;25.26;74.41
23229;BME280;11783;50.350;6.576;2023-08-24T09:49:20;96181.41;;;25.29;73.77
23229;BME280;11783;50.350;6.576;2023-08-24T09:51:46;96183.28;;;25.28;69.07
23229;BME280;11783;50.350;6.576;2023-08-24T09:54:15;96189.09;;;25.27;70.72
23229;BME280;11783;50.350;6.576;2023-08-24T09:56:42;96181.41;;;25.29;73.35
23229;BME280;11783;50.350;6.576;2023-08-24T09:59:16;96178.91;;;25.36;73.90
23229;BME280;11783;50.350;6.576;2023-08-24T10:01:48;96178.44;;;25.34;72.75
23229;BME280;11783;50.350;6.576;2023-08-24T10:04:15;96185.25;;;25.40;74.35
23229;BME280;11783;50.350;6.576;2023-08-24T10:06:42;96179.47;;;25.42;71.92
23229;BME280;11783;50.350;6.576;2023-08-24T10:09:16;96179.56;;;25.21;70.26
23229;BME280;11783;50.350;6.576;2023-08-24T10:11:53;96181.25;;;25.25;74.49
23229;BME280;11783;50.350;6.576;2023-08-24T10:14:27;96185.91;;;25.25;74.27
23229;BME280;11783;50.350;6.576;2023-08-24T10:16:54;96193.38;;;25.28;75.81
23229;BME280;11783;50.350;6.576;2023-08-24T10:19:21;96192.06;;;25.34;75.58
23229;BME280;11783;50.350;6.576;2023-08-24T10:21:48;96200.78;;;25.40;76.44
23229;BME280;11783;50.350;6.576;2023-08-24T10:24:16;96200.56;;;25.32;74.26
23229;BME280;11783;50.350;6.576;2023-08-24T10:26:42;96198.16;;;25.43;78.78
23229;BME280;11783;50.350;6.576;2023-08-24T10:29:07;96206.69;;;25.54;77.99
23229;BME280;11783;50.350;6.576;2023-08-24T10:31:33;96207.69;;;25.61;77.23
23229;BME280;11783;50.350;6.576;2023-08-24T10:34:00;96214.88;;;25.66;77.94
23229;BME280;11783;50.350;6.576;2023-08-24T10:36:27;96208.59;;;25.65;74.67
23229;BME280;11783;50.350;6.576;2023-08-24T10:38:55;96218.97;;;25.72;77.53
23229;BME280;11783;50.350;6.576;2023-08-24T10:41:26;96207.34;;;25.63;76.58
23229;BME280;11783;50.350;6.576;2023-08-24T10:43:51;96206.06;;;25.69;77.57
23229;BME280;11783;50.350;6.576;2023-08-24T10:46:17;96199.22;;;25.75;78.06
23229;BME280;11783;50.350;6.576;2023-08-24T10:53:51;96188.53;;;25.58;75.35
23229;BME280;11783;50.350;6.576;2023-08-24T10:56:17;96182.75;;;25.59;75.42
23229;BME280;11783;50.350;6.576;2023-08-24T10:58:47;96187.66;;;25.54;75.94
23229;BME280;11783;50.350;6.576;2023-08-24T11:01:16;96181.97;;;25.47;77.51
23229;BME280;11783;50.350;6.576;2023-08-24T11:03:49;96182.75;;;25.35;79.60
23229;BME280;11783;50.350;6.576;2023-08-24T11:06:18;96185.13;;;25.24;77.15
23229;BME280;11783;50.350;6.576;2023-08-24T11:08:45;96183.53;;;25.11;78.61
23229;BME280;11783;50.350;6.576;2023-08-24T11:11:37;96177.22;;;24.98;80.25
23229;BME280;11783;50.350;6.576;2023-08-24T11:14:17;96196.81;;;24.92;81.02
23229;BME280;11783;50.350;6.576;2023-08-24T11:16:47;96197.47;;;24.89;82.91
23229;BME280;11783;50.350;6.576;2023-08-24T11:19:13;96189.19;;;24.85;81.69
23229;BME280;11783;50.350;6.576;2023-08-24T11:21:40;96190.88;;;24.77;81.56
23229;BME280;11783;50.350;6.576;2023-08-24T11:24:06;96181.94;;;24.77;82.48
23229;BME280;11783;50.350;6.576;2023-08-24T11:26:33;96175.25;;;24.74;81.60
23229;BME280;11783;50.350;6.576;2023-08-24T11:28:59;96173.97;;;24.72;82.74
23229;BME280;11783;50.350;6.576;2023-08-24T11:31:24;96174.06;;;24.63;83.03
23229;BME280;11783;50.350;6.576;2023-08-24T11:33:54;96172.69;;;24.57;84.37
23229;BME280;11783;50.350;6.576;2023-08-24T11:36:23;96172.97;;;24.43;85.95
23229;BME280;11783;50.350;6.576;2023-08-24T11:38:52;96192.88;;;24.27;87.15
23229;BME280;11783;50.350;6.576;2023-08-24T11:41:19;96212.28;;;24.16;87.72
23229;BME280;11783;50.350;6.576;2023-08-24T11:43:47;96248.56;;;24.12;87.39
23229;BME280;11783;50.350;6.576;2023-08-24T11:46:16;96333.53;;;23.83;92.59
23229;BME280;11783;50.350;6.576;2023-08-24T11:48:42;96339.34;;;23.47;88.83
23229;BME280;11783;50.350;6.576;2023-08-24T11:51:08;96346.72;;;23.20;94.28
23229;BME280;11783;50.350;6.576;2023-08-24T11:53:38;96402.81;;;22.77;97.57
23229;BME280;11783;50.350;6.576;2023-08-24T11:56:04;96404.97;;;22.49;98.42
23229;BME280;11783;50.350;6.576;2023-08-24T11:58:31;96424.97;;;22.22;99.85
23229;BME280;11783;50.350;6.576;2023-08-24T12:00:57;96426.22;;;21.93;100.00
23229;BME280;11783;50.350;6.576;2023-08-24T12:03:23;96423.88;;;21.69;100.00
23229;BME280;11783;50.350;6.576;2023-08-24T12:05:48;96422.94;;;21.52;100.00
23229;BME280;11783;50.350;6.576;2023-08-24T12:08:15;96418.59;;;21.42;100.00
23229;BME280;11783;50.350;6.576;2023-08-24T12:10:43;96404.91;;;21.38;100.00
23229;BME280;11783;50.350;6.576;2023-08-24T12:13:09;96388.78;;;21.33;100.00
23229;BME280;11783;50.350;6.576;2023-08-24T12:15:35;96378.00;;;21.20;100.00
23229;BME280;11783;50.350;6.576;2023-08-24T12:18:15;96369.41;;;21.17;100.00
23229;BME280;11783;50.350;6.576;2023-08-24T12:20:41;96347.78;;;21.17;100.00
23229;BME280;11783;50.350;6.576;2023-08-24T12:23:07;96338.56;;;21.18;100.00
23229;BME280;11783;50.350;6.576;2023-08-24T12:25:43;96318.63;;;21.06;100.00
23229;BME280;11783;50.350;6.576;2023-08-24T12:28:15;96315.06;;;20.97;100.00
23229;BME280;11783;50.350;6.576;2023-08-24T12:30:52;96311.38;;;20.93;100.00
23229;BME280;11783;50.350;6.576;2023-08-24T12:33:28;96295.53;;;20.77;100.00
23229;BME280;11783;50.350;6.576;2023-08-24T12:35:55;96292.59;;;20.65;100.00
23229;BME280;11783;50.350;6.576;2023-08-24T12:38:25;96258.69;;;20.59;100.00
23229;BME280;11783;50.350;6.576;2023-08-24T12:40:51;96203.53;;;20.51;100.00
23229;BME280;11783;50.350;6.576;2023-08-24T12:43:17;96135.47;;;20.41;100.00
23229;BME280;11783;50.350;6.576;2023-08-24T12:45:42;96140.31;;;20.30;100.00
23229;BME280;11783;50.350;6.576;2023-08-24T12:48:09;96134.91;;;20.30;100.00
23229;BME280;11783;50.350;6.576;2023-08-24T12:50:35;96116.81;;;20.31;100.00
23229;BME280;11783;50.350;6.576;2023-08-24T12:53:01;96132.31;;;20.25;100.00
23229;BME280;11783;50.350;6.576;2023-08-24T12:55:27;96180.53;;;20.18;100.00
23229;BME280;11783;50.350;6.576;2023-08-24T12:57:53;96209.59;;;20.21;100.00
23229;BME280;11783;50.350;6.576;2023-08-24T13:00:18;96200.72;;;20.20;100.00
23229;BME280;11783;50.350;6.576;2023-08-24T13:02:44;96184.91;;;20.27;100.00